createdAt,value
2019-04-06T00:00:35.989Z,50.60
2019-04-06T00:01:36.001Z,50.10
2019-04-06T00:02:36.109Z,50.50
2019-04-06T00:03:36.014Z,49.20
2019-04-06T00:04:35.966Z,47.40
2019-04-06T00:05:35.937Z,51.40
2019-04-06T00:06:35.957Z,51.10
2019-04-06T00:07:35.931Z,48.50
2019-04-06T00:08:35.911Z,47.40
2019-04-06T00:09:35.894Z,49.20
2019-04-06T00:10:35.883Z,48.20
2019-04-06T00:11:35.873Z,48.60
2019-04-06T00:12:35.880Z,49.40
2019-04-06T00:13:36.087Z,47.90
2019-04-06T00:14:35.862Z,49.40
2019-04-06T00:15:35.890Z,47.80
2019-04-06T00:16:35.858Z,49.60
2019-04-06T00:17:35.840Z,47.40
2019-04-06T00:18:35.840Z,47.20
2019-04-06T00:19:35.843Z,44.90
2019-04-06T00:20:35.826Z,45.30
2019-04-06T00:21:35.804Z,49.90
2019-04-06T00:22:35.761Z,48.20
2019-04-06T00:23:35.756Z,47.30
2019-04-06T00:24:35.749Z,49.90
2019-04-06T00:25:43.732Z,46.50
2019-04-06T00:26:36.716Z,45.60
2019-04-06T00:27:35.718Z,48.10
2019-04-06T00:28:35.717Z,47.00
2019-04-06T00:29:35.783Z,47.20
2019-04-06T00:30:35.681Z,46.80
2019-04-06T00:31:35.683Z,46.50
2019-04-06T00:32:35.657Z,47.20
2019-04-06T00:33:35.668Z,46.80
2019-04-06T00:34:35.667Z,48.70
2019-04-06T00:35:35.629Z,47.00
2019-04-06T00:36:35.631Z,44.60
2019-04-06T00:37:35.599Z,48.00
2019-04-06T00:38:35.584Z,45.10
2019-04-06T00:39:35.581Z,45.00
2019-04-06T00:40:35.595Z,49.30
2019-04-06T00:41:35.559Z,44.00
2019-04-06T00:42:35.550Z,43.80
2019-04-06T00:43:35.534Z,45.70
2019-04-06T00:44:35.523Z,44.70
2019-04-06T00:45:35.536Z,46.40
2019-04-06T00:46:35.505Z,45.20
2019-04-06T00:47:35.496Z,43.70
2019-04-06T00:48:35.484Z,43.20
2019-04-06T00:49:35.469Z,44.00
2019-04-06T00:50:35.490Z,44.80
2019-04-06T00:51:35.458Z,42.10
2019-04-06T00:52:35.436Z,42.90
2019-04-06T00:53:35.438Z,44.00
2019-04-06T00:54:35.424Z,42.70
2019-04-06T00:55:35.414Z,42.00
2019-04-06T00:56:35.419Z,42.10
2019-04-06T00:57:35.383Z,40.80
2019-04-06T00:58:35.417Z,43.00
2019-04-06T00:59:35.383Z,40.70
2019-04-06T01:00:35.380Z,42.60
2019-04-06T01:01:35.377Z,44.70
2019-04-06T01:02:35.332Z,41.40
2019-04-06T01:03:35.321Z,41.60
2019-04-06T01:04:35.310Z,39.30
2019-04-06T01:05:35.306Z,40.40
2019-04-06T01:06:35.299Z,40.40
2019-04-06T01:07:35.308Z,41.60
2019-04-06T01:08:35.278Z,39.90
2019-04-06T01:09:35.254Z,39.60
2019-04-06T01:10:35.245Z,39.60
2019-04-06T01:11:35.243Z,41.30
2019-04-06T01:12:35.260Z,39.30
2019-04-06T01:13:35.320Z,41.10
2019-04-06T01:14:35.219Z,40.00
2019-04-06T01:15:35.199Z,40.20
2019-04-06T01:16:35.237Z,37.70
2019-04-06T01:17:35.179Z,40.00
2019-04-06T01:18:35.203Z,40.00
2019-04-06T01:19:35.158Z,39.20
2019-04-06T01:20:35.150Z,37.70
2019-04-06T01:21:35.134Z,39.00
2019-04-06T01:22:35.119Z,39.10
2019-04-06T01:23:35.114Z,40.20
2019-04-06T01:24:35.122Z,39.60
2019-04-06T01:25:35.173Z,37.70
2019-04-06T01:26:35.106Z,39.20
2019-04-06T01:27:35.079Z,36.80
2019-04-06T01:28:35.081Z,38.80
2019-04-06T01:29:35.046Z,38.00
2019-04-06T01:30:35.038Z,39.20
2019-04-06T01:31:35.144Z,38.60
2019-04-06T01:32:35.041Z,37.60
2019-04-06T01:33:35.001Z,36.20
2019-04-06T01:34:34.994Z,36.40
2019-04-06T01:35:35.097Z,39.10
2019-04-06T01:36:34.972Z,38.10
2019-04-06T01:37:34.987Z,38.10
2019-04-06T01:38:34.981Z,35.60
2019-04-06T01:39:34.955Z,36.50
2019-04-06T01:40:34.946Z,38.50
2019-04-06T01:41:34.922Z,35.40
2019-04-06T01:42:34.937Z,35.00
2019-04-06T01:43:34.895Z,37.20
2019-04-06T01:44:34.885Z,37.30
2019-04-06T01:45:34.887Z,36.70
2019-04-06T01:46:34.878Z,38.10
2019-04-06T01:47:34.855Z,33.90
2019-04-06T01:48:34.862Z,33.30
2019-04-06T01:49:34.840Z,37.00
2019-04-06T01:50:34.889Z,36.40
2019-04-06T01:51:34.827Z,36.30
2019-04-06T01:52:34.808Z,36.50
2019-04-06T01:53:34.809Z,35.10
2019-04-06T01:54:34.780Z,35.90
2019-04-06T01:55:34.768Z,34.00
2019-04-06T01:56:34.774Z,36.40
2019-04-06T01:57:34.755Z,34.30
2019-04-06T01:58:34.767Z,36.70
2019-04-06T01:59:34.731Z,34.50
2019-04-06T02:00:34.758Z,36.60
2019-04-06T02:01:34.706Z,35.60
2019-04-06T02:02:34.848Z,36.20
2019-04-06T02:03:34.694Z,35.10
2019-04-06T02:04:34.683Z,33.10
2019-04-06T02:05:34.697Z,34.10
2019-04-06T02:06:34.654Z,36.10
2019-04-06T02:07:34.668Z,34.80
2019-04-06T02:08:34.633Z,36.30
2019-04-06T02:09:34.644Z,35.40
2019-04-06T02:10:34.618Z,36.00
2019-04-06T02:11:34.623Z,34.30
2019-04-06T02:12:34.592Z,36.40
2019-04-06T02:13:34.597Z,38.30
2019-04-06T02:14:34.580Z,38.20
2019-04-06T02:15:34.603Z,37.30
2019-04-06T02:16:34.549Z,37.80
2019-04-06T02:17:34.560Z,38.40
2019-04-06T02:18:34.533Z,34.60
2019-04-06T02:19:34.536Z,37.50
2019-04-06T02:20:34.506Z,37.80
2019-04-06T02:21:34.494Z,35.70
2019-04-06T02:22:34.484Z,36.40
2019-04-06T02:23:34.479Z,37.40
2019-04-06T02:24:34.463Z,36.60
2019-04-06T02:25:34.464Z,37.40
2019-04-06T02:26:34.435Z,36.40
2019-04-06T02:27:34.424Z,37.20
2019-04-06T02:28:34.423Z,37.30
2019-04-06T02:29:34.412Z,39.10
2019-04-06T02:30:34.586Z,37.20
2019-04-06T02:31:34.391Z,35.30
2019-04-06T02:32:34.385Z,38.20
2019-04-06T02:33:34.386Z,33.10
2019-04-06T02:34:34.352Z,35.00
2019-04-06T02:35:34.353Z,34.90
2019-04-06T02:36:34.358Z,34.40
2019-04-06T02:37:34.372Z,34.50
2019-04-06T02:38:34.312Z,33.60
2019-04-06T02:39:34.301Z,38.90
2019-04-06T02:40:34.319Z,34.90
2019-04-06T02:41:34.434Z,35.90
2019-04-06T02:42:34.276Z,35.10
2019-04-06T02:43:34.265Z,35.30
2019-04-06T02:44:34.256Z,36.30
2019-04-06T02:45:34.235Z,35.60
2019-04-06T02:46:34.298Z,35.60
2019-04-06T02:47:34.211Z,34.40
2019-04-06T02:48:34.207Z,34.50
2019-04-06T02:49:34.200Z,33.70
2019-04-06T02:50:34.229Z,34.90
2019-04-06T02:51:34.197Z,34.50
2019-04-06T02:52:34.178Z,34.50
2019-04-06T02:53:34.266Z,35.40
2019-04-06T02:54:34.369Z,35.30
2019-04-06T02:55:34.132Z,35.80
2019-04-06T02:56:45.599Z,38.00
2019-04-06T02:57:35.109Z,39.10
2019-04-06T02:58:34.094Z,36.50
2019-04-06T02:59:34.083Z,35.40
2019-04-06T03:00:34.073Z,37.20
2019-04-06T03:01:34.088Z,35.40
2019-04-06T03:02:34.094Z,37.20
2019-04-06T03:03:34.046Z,38.00
2019-04-06T03:04:34.034Z,37.20
2019-04-06T03:05:34.043Z,35.40
2019-04-06T03:06:34.011Z,39.00
2019-04-06T03:07:34.003Z,36.90
2019-04-06T03:08:34.016Z,36.60
2019-04-06T03:09:33.987Z,37.30
2019-04-06T03:10:33.975Z,39.30
2019-04-06T03:11:33.957Z,34.80
2019-04-06T03:12:33.944Z,37.90
2019-04-06T03:13:33.965Z,36.40
2019-04-06T03:14:33.934Z,38.30
2019-04-06T03:15:33.925Z,36.60
2019-04-06T03:16:33.912Z,35.70
2019-04-06T03:17:33.891Z,37.40
2019-04-06T03:18:33.883Z,40.50
2019-04-06T03:19:33.901Z,35.70
2019-04-06T03:20:33.945Z,34.80
2019-04-06T03:21:33.851Z,36.10
2019-04-06T03:22:33.845Z,35.90
2019-04-06T03:23:33.826Z,35.50
2019-04-06T03:24:33.818Z,34.00
2019-04-06T03:25:33.853Z,35.10
2019-04-06T03:26:33.824Z,36.00
2019-04-06T03:27:33.792Z,35.40
2019-04-06T03:28:33.786Z,35.60
2019-04-06T03:29:33.769Z,33.80
2019-04-06T03:30:33.765Z,35.00
2019-04-06T03:31:33.939Z,35.00
2019-04-06T03:32:33.729Z,37.10
2019-04-06T03:33:33.725Z,35.10
2019-04-06T03:34:33.761Z,36.70
2019-04-06T03:35:33.719Z,36.20
2019-04-06T03:36:33.715Z,35.60
2019-04-06T03:37:33.758Z,36.50
2019-04-06T03:38:33.781Z,36.50
2019-04-06T03:39:33.665Z,36.10
2019-04-06T03:40:33.649Z,36.30
2019-04-06T03:41:33.637Z,35.70
2019-04-06T03:42:33.650Z,38.20
2019-04-06T03:43:33.612Z,36.50
2019-04-06T03:44:33.609Z,39.40
2019-04-06T03:45:33.658Z,37.20
2019-04-06T03:46:33.708Z,36.40
2019-04-06T03:47:33.577Z,39.00
2019-04-06T03:48:33.599Z,37.20
2019-04-06T03:49:33.537Z,39.70
2019-04-06T03:50:33.534Z,37.10
2019-04-06T03:51:33.518Z,37.70
2019-04-06T03:52:33.537Z,36.60
2019-04-06T03:53:33.501Z,36.80
2019-04-06T03:54:33.511Z,37.40
2019-04-06T03:55:33.558Z,35.50
2019-04-06T03:56:33.462Z,37.30
2019-04-06T03:57:33.462Z,36.40
2019-04-06T03:58:33.523Z,36.10
2019-04-06T03:59:33.466Z,34.10
2019-04-06T04:00:33.425Z,35.30
2019-04-06T04:01:33.419Z,34.80
2019-04-06T04:02:33.416Z,33.90
2019-04-06T04:03:33.386Z,35.10
2019-04-06T04:04:33.376Z,36.00
2019-04-06T04:05:33.395Z,37.90
2019-04-06T04:06:33.489Z,33.20
2019-04-06T04:07:33.371Z,37.50
2019-04-06T04:08:33.340Z,34.40
2019-04-06T04:09:33.322Z,35.40
2019-04-06T04:10:33.526Z,33.40
2019-04-06T04:11:33.319Z,36.60
2019-04-06T04:12:33.319Z,34.80
2019-04-06T04:13:33.282Z,35.20
2019-04-06T04:14:33.273Z,34.40
2019-04-06T04:15:33.652Z,33.40
2019-04-06T04:16:33.277Z,35.10
2019-04-06T04:17:33.261Z,34.80
2019-04-06T04:18:33.339Z,35.50
2019-04-06T04:19:33.265Z,37.60
2019-04-06T04:20:33.212Z,33.50
2019-04-06T04:21:33.198Z,33.90
2019-04-06T04:22:34.677Z,35.10
2019-04-06T04:23:33.244Z,35.10
2019-04-06T04:24:33.165Z,33.90
2019-04-06T04:25:33.173Z,35.50
2019-04-06T04:26:33.155Z,36.00
2019-04-06T04:27:33.197Z,35.40
2019-04-06T04:28:33.129Z,34.80
2019-04-06T04:29:33.123Z,36.20
2019-04-06T04:30:34.555Z,35.40
2019-04-06T04:31:33.114Z,34.00
2019-04-06T04:32:33.203Z,35.70
2019-04-06T04:33:33.103Z,35.20
2019-04-06T04:34:33.056Z,34.90
2019-04-06T04:35:33.062Z,35.70
2019-04-06T04:36:33.058Z,32.40
2019-04-06T04:37:33.196Z,33.20
2019-04-06T04:38:33.026Z,33.50
2019-04-06T04:39:33.043Z,34.10
2019-04-06T04:40:33.271Z,37.60
2019-04-06T04:41:32.986Z,36.80
2019-04-06T04:42:32.973Z,34.10
2019-04-06T04:43:32.964Z,37.10
2019-04-06T04:44:32.954Z,34.20
2019-04-06T04:45:32.956Z,34.20
2019-04-06T04:46:33.050Z,36.50
2019-04-06T04:47:32.918Z,35.50
2019-04-06T04:48:32.913Z,35.90
2019-04-06T04:49:32.905Z,32.60
2019-04-06T04:50:32.912Z,32.60
2019-04-06T04:51:32.896Z,34.60
2019-04-06T04:52:32.997Z,35.90
2019-04-06T04:53:32.896Z,34.90
2019-04-06T04:54:32.858Z,35.40
2019-04-06T04:55:32.842Z,36.60
2019-04-06T04:56:32.998Z,35.40
2019-04-06T04:57:40.035Z,34.60
2019-04-06T04:58:33.808Z,33.90
2019-04-06T04:59:32.792Z,35.00
2019-04-06T05:00:32.777Z,35.50
2019-04-06T05:01:32.772Z,38.00
2019-04-06T05:02:32.789Z,37.20
2019-04-06T05:03:32.756Z,37.70
2019-04-06T05:04:32.848Z,34.40
2019-04-06T05:05:32.753Z,36.20
2019-04-06T05:06:32.711Z,37.40
2019-04-06T05:07:32.711Z,33.50
2019-04-06T05:08:32.812Z,35.00
2019-04-06T05:09:32.686Z,34.10
2019-04-06T05:10:32.726Z,37.70
2019-04-06T05:11:32.686Z,33.90
2019-04-06T05:12:32.658Z,36.10
2019-04-06T05:13:32.637Z,37.50
2019-04-06T05:14:32.655Z,34.50
2019-04-06T05:15:32.624Z,36.30
2019-04-06T05:16:32.609Z,40.20
2019-04-06T05:17:32.713Z,34.30
2019-04-06T05:18:32.586Z,36.80
2019-04-06T05:19:32.576Z,37.70
2019-04-06T05:20:32.586Z,36.20
2019-04-06T05:21:32.559Z,39.80
2019-04-06T05:22:32.568Z,37.10
2019-04-06T05:23:32.535Z,37.00
2019-04-06T05:24:32.546Z,37.30
2019-04-06T05:25:32.552Z,33.00
2019-04-06T05:26:37.798Z,37.80
2019-04-06T05:27:33.512Z,36.00
2019-04-06T05:28:32.477Z,38.20
2019-04-06T05:29:33.343Z,36.60
2019-04-06T05:30:32.465Z,36.20
2019-04-06T05:31:32.447Z,36.70
2019-04-06T05:32:32.435Z,36.60
2019-04-06T05:33:32.466Z,37.50
2019-04-06T05:34:32.418Z,36.90
2019-04-06T05:35:32.427Z,40.80
2019-04-06T05:36:32.399Z,35.60
2019-04-06T05:37:32.387Z,35.40
2019-04-06T05:38:32.369Z,33.60
2019-04-06T05:39:32.357Z,36.60
2019-04-06T05:40:32.367Z,37.10
2019-04-06T05:41:32.343Z,37.30
2019-04-06T05:42:32.376Z,38.60
2019-04-06T05:43:32.332Z,35.00
2019-04-06T05:44:32.313Z,35.30
2019-04-06T05:45:32.640Z,35.30
2019-04-06T05:46:32.287Z,36.40
2019-04-06T05:47:32.445Z,34.60
2019-04-06T05:48:32.271Z,37.20
2019-04-06T05:49:32.266Z,36.60
2019-04-06T05:50:32.241Z,34.90
2019-04-06T05:51:32.257Z,36.30
2019-04-06T05:52:32.221Z,35.20
2019-04-06T05:53:32.249Z,35.80
2019-04-06T05:54:32.217Z,37.30
2019-04-06T05:55:32.195Z,38.20
2019-04-06T05:56:32.209Z,35.20
2019-04-06T05:57:32.826Z,38.00
2019-04-06T05:58:32.176Z,38.50
2019-04-06T05:59:32.146Z,38.00
2019-04-06T06:00:32.129Z,36.50
2019-04-06T06:01:32.233Z,39.30
2019-04-06T06:02:32.372Z,39.30
2019-04-06T06:03:32.101Z,37.00
2019-04-06T06:04:32.096Z,39.20
2019-04-06T06:05:32.090Z,38.50
2019-04-06T06:06:32.074Z,38.90
2019-04-06T06:07:32.099Z,39.20
2019-04-06T06:08:32.105Z,39.30
2019-04-06T06:09:32.039Z,37.60
2019-04-06T06:10:32.045Z,38.20
2019-04-06T06:11:32.014Z,37.60
2019-04-06T06:12:32.020Z,36.60
2019-04-06T06:13:31.995Z,36.60
2019-04-06T06:14:32.033Z,40.10
2019-04-06T06:15:31.980Z,35.30
2019-04-06T06:16:31.966Z,40.50
2019-04-06T06:17:32.041Z,39.90
2019-04-06T06:18:31.943Z,37.10
2019-04-06T06:19:31.954Z,39.30
2019-04-06T06:20:31.923Z,37.00
2019-04-06T06:21:32.034Z,38.50
2019-04-06T06:22:31.897Z,39.50
2019-04-06T06:23:31.882Z,40.50
2019-04-06T06:24:34.608Z,40.90
2019-04-06T06:25:31.881Z,38.30
2019-04-06T06:26:31.863Z,38.60
2019-04-06T06:27:31.849Z,39.50
2019-04-06T06:28:31.838Z,39.30
2019-04-06T06:29:31.850Z,37.00
2019-04-06T06:30:31.918Z,40.70
2019-04-06T06:31:31.800Z,40.00
2019-04-06T06:32:31.793Z,36.20
2019-04-06T06:33:31.796Z,35.80
2019-04-06T06:34:31.778Z,37.30
2019-04-06T06:35:31.776Z,37.70
2019-04-06T06:36:31.747Z,38.60
2019-04-06T06:37:31.744Z,36.60
2019-04-06T06:38:31.730Z,38.30
2019-04-06T06:39:31.721Z,38.60
2019-04-06T06:40:31.741Z,39.00
2019-04-06T06:41:31.703Z,36.80
2019-04-06T06:42:31.684Z,37.30
2019-04-06T06:43:31.675Z,38.40
2019-04-06T06:44:31.667Z,41.10
2019-04-06T06:45:31.664Z,38.10
2019-04-06T06:46:31.691Z,40.50
2019-04-06T06:47:31.637Z,38.70
2019-04-06T06:48:31.628Z,43.10
2019-04-06T06:49:31.613Z,39.60
2019-04-06T06:50:31.605Z,40.00
2019-04-06T06:51:31.676Z,37.70
2019-04-06T06:52:31.582Z,41.40
2019-04-06T06:53:31.570Z,38.60
2019-04-06T06:54:31.553Z,40.20
2019-04-06T06:55:31.565Z,44.50
2019-04-06T06:56:31.555Z,40.80
2019-04-06T06:57:31.762Z,39.80
2019-04-06T06:58:31.521Z,39.80
2019-04-06T06:59:31.535Z,41.00
2019-04-06T07:00:31.684Z,41.80
2019-04-06T07:01:31.499Z,40.70
2019-04-06T07:02:31.472Z,40.00
2019-04-06T07:03:31.463Z,40.00
2019-04-06T07:04:31.448Z,39.20
2019-04-06T07:05:31.460Z,39.90
2019-04-06T07:06:31.454Z,39.30
2019-04-06T07:07:31.451Z,40.90
2019-04-06T07:08:31.510Z,41.20
2019-04-06T07:09:31.414Z,41.80
2019-04-06T07:10:31.388Z,42.90
2019-04-06T07:11:31.383Z,41.50
2019-04-06T07:12:31.409Z,41.60
2019-04-06T07:13:31.686Z,40.20
2019-04-06T07:14:31.347Z,38.90
2019-04-06T07:15:31.336Z,40.20
2019-04-06T07:16:31.328Z,40.80
2019-04-06T07:17:31.333Z,38.90
2019-04-06T07:18:31.308Z,41.40
2019-04-06T07:19:31.313Z,40.20
2019-04-06T07:20:31.528Z,39.90
2019-04-06T07:21:31.330Z,39.60
2019-04-06T07:22:31.260Z,38.60
2019-04-06T07:23:31.250Z,41.30
2019-04-06T07:24:31.258Z,39.70
2019-04-06T07:25:31.263Z,39.90
2019-04-06T07:26:31.301Z,38.90
2019-04-06T07:27:31.389Z,43.00
2019-04-06T07:28:37.549Z,42.90
2019-04-06T07:29:32.278Z,40.80
2019-04-06T07:30:31.175Z,38.30
2019-04-06T07:31:31.162Z,38.80
2019-04-06T07:32:31.379Z,38.70
2019-04-06T07:33:31.134Z,38.50
2019-04-06T07:34:31.130Z,41.70
2019-04-06T07:35:31.145Z,38.90
2019-04-06T07:36:31.103Z,37.70
2019-04-06T07:37:31.131Z,37.20
2019-04-06T07:38:31.090Z,39.70
2019-04-06T07:39:31.263Z,39.70
2019-04-06T07:40:31.093Z,40.20
2019-04-06T07:41:31.055Z,38.40
2019-04-06T07:42:31.047Z,37.60
2019-04-06T07:43:31.036Z,40.40
2019-04-06T07:44:31.031Z,35.70
2019-04-06T07:45:31.019Z,38.10
2019-04-06T07:46:31.022Z,37.90
2019-04-06T07:47:30.983Z,37.90
2019-04-06T07:48:31.049Z,38.90
2019-04-06T07:49:30.968Z,37.20
2019-04-06T07:50:31.613Z,38.00
2019-04-06T07:51:30.966Z,38.10
2019-04-06T07:52:31.016Z,39.10
2019-04-06T07:53:30.979Z,36.10
2019-04-06T07:54:30.912Z,40.50
2019-04-06T07:55:30.908Z,37.30
2019-04-06T07:56:31.755Z,37.10
2019-04-06T07:57:30.954Z,36.10
2019-04-06T07:58:31.321Z,37.10
2019-04-06T07:59:30.875Z,38.20
2019-04-06T08:00:30.857Z,35.10
2019-04-06T08:01:30.852Z,36.80
2019-04-06T08:02:30.900Z,35.50
2019-04-06T08:03:30.938Z,36.30
2019-04-06T08:04:30.873Z,33.60
2019-04-06T08:05:30.799Z,34.70
2019-04-06T08:06:30.788Z,39.80
2019-04-06T08:07:30.782Z,35.20
2019-04-06T08:08:30.789Z,36.20
2019-04-06T08:09:30.772Z,37.20
2019-04-06T08:10:30.755Z,37.50
2019-04-06T08:11:30.752Z,36.90
2019-04-06T08:12:30.732Z,33.60
2019-04-06T08:13:30.745Z,34.30
2019-04-06T08:14:30.708Z,35.20
2019-04-06T08:15:30.954Z,34.20
2019-04-06T08:16:30.687Z,33.50
2019-04-06T08:17:30.718Z,34.10
2019-04-06T08:18:30.686Z,34.50
2019-04-06T08:19:30.773Z,35.20
2019-04-06T08:20:30.639Z,37.40
2019-04-06T08:21:30.634Z,35.90
2019-04-06T08:22:30.622Z,34.50
2019-04-06T08:23:30.727Z,34.70
2019-04-06T08:24:30.624Z,35.00
2019-04-06T08:25:30.587Z,33.90
2019-04-06T08:26:30.694Z,34.10
2019-04-06T08:27:30.573Z,33.40
2019-04-06T08:28:30.601Z,33.50
2019-04-06T08:29:30.544Z,34.10
2019-04-06T08:30:30.725Z,36.10
2019-04-06T08:31:30.709Z,33.40
2019-04-06T08:32:30.520Z,34.30
2019-04-06T08:33:30.707Z,35.90
2019-04-06T08:34:30.518Z,33.70
2019-04-06T08:35:31.490Z,33.80
2019-04-06T08:36:30.501Z,34.30
2019-04-06T08:37:30.469Z,34.80
2019-04-06T08:38:30.458Z,33.60
2019-04-06T08:39:30.466Z,32.30
2019-04-06T08:40:30.436Z,35.50
2019-04-06T08:41:30.755Z,31.30
2019-04-06T08:42:30.422Z,33.40
2019-04-06T08:43:31.400Z,35.50
2019-04-06T08:44:30.392Z,34.30
2019-04-06T08:45:30.409Z,33.50
2019-04-06T08:46:30.381Z,33.30
2019-04-06T08:47:30.424Z,32.70
2019-04-06T08:48:30.457Z,33.40
2019-04-06T08:49:30.422Z,36.00
2019-04-06T08:50:30.355Z,34.20
2019-04-06T08:51:30.321Z,32.40
2019-04-06T08:52:30.313Z,32.60
2019-04-06T08:53:30.338Z,31.40
2019-04-06T08:54:30.301Z,32.40
2019-04-06T08:55:30.288Z,30.80
2019-04-06T08:56:30.280Z,33.80
2019-04-06T08:57:30.449Z,31.70
2019-04-06T08:58:30.252Z,32.30
2019-04-06T08:59:30.405Z,31.20
2019-04-06T09:00:30.239Z,32.70
2019-04-06T09:01:30.241Z,31.70
2019-04-06T09:02:30.212Z,34.10
2019-04-06T09:03:30.209Z,31.90
2019-04-06T09:04:30.195Z,31.70
2019-04-06T09:05:30.214Z,30.20
2019-04-06T09:06:30.183Z,30.60
2019-04-06T09:07:30.293Z,30.40
2019-04-06T09:08:30.161Z,32.50
2019-04-06T09:09:30.146Z,31.70
2019-04-06T09:10:30.155Z,30.00
2019-04-06T09:11:30.127Z,31.50
2019-04-06T09:12:30.185Z,31.90
2019-04-06T09:13:30.109Z,33.00
2019-04-06T09:14:30.101Z,28.90
2019-04-06T09:15:30.114Z,33.00
2019-04-06T09:16:30.077Z,32.60
2019-04-06T09:17:30.087Z,32.00
2019-04-06T09:18:30.063Z,30.10
2019-04-06T09:19:30.050Z,30.40
2019-04-06T09:20:30.089Z,35.30
2019-04-06T09:21:30.045Z,33.20
2019-04-06T09:22:30.016Z,33.50
2019-04-06T09:23:30.263Z,29.70
2019-04-06T09:24:30.123Z,30.00
2019-04-06T09:25:30.249Z,29.40
2019-04-06T09:26:30.009Z,30.00
2019-04-06T09:27:29.970Z,32.80
2019-04-06T09:28:29.975Z,30.40
2019-04-06T09:29:29.947Z,31.70
2019-04-06T09:30:29.934Z,31.70
2019-04-06T09:31:29.950Z,30.20
2019-04-06T09:32:29.927Z,29.50
2019-04-06T09:33:29.903Z,28.80
2019-04-06T09:34:31.162Z,30.80
2019-04-06T09:35:29.886Z,29.00
2019-04-06T09:36:29.910Z,28.70
2019-04-06T09:37:30.079Z,30.50
2019-04-06T09:38:29.871Z,29.20
2019-04-06T09:39:29.857Z,29.20
2019-04-06T09:40:30.293Z,29.10
2019-04-06T09:41:29.830Z,28.70
2019-04-06T09:42:29.836Z,29.40
2019-04-06T09:43:29.824Z,31.70
2019-04-06T09:44:29.801Z,27.60
2019-04-06T09:45:29.952Z,29.00
2019-04-06T09:46:29.788Z,26.20
2019-04-06T09:47:29.789Z,27.20
2019-04-06T09:48:29.771Z,27.10
2019-04-06T09:49:29.761Z,27.40
2019-04-06T09:50:29.967Z,26.70
2019-04-06T09:51:29.746Z,28.80
2019-04-06T09:52:29.949Z,28.70
2019-04-06T09:53:29.727Z,28.00
2019-04-06T09:54:29.715Z,27.10
2019-04-06T09:55:29.700Z,27.10
2019-04-06T09:56:29.694Z,26.10
2019-04-06T09:57:29.680Z,25.20
2019-04-06T09:58:29.826Z,25.80
2019-04-06T09:59:36.044Z,23.10
2019-04-06T10:00:30.724Z,26.30
2019-04-06T10:01:38.025Z,24.80
2019-04-06T10:02:30.631Z,25.70
2019-04-06T10:03:29.720Z,25.90
2019-04-06T10:04:29.619Z,23.10
2019-04-06T10:05:29.797Z,24.20
2019-04-06T10:06:32.120Z,24.50
2019-04-06T10:07:29.581Z,24.70
2019-04-06T10:08:29.624Z,26.40
2019-04-06T10:09:29.589Z,26.60
2019-04-06T10:10:29.577Z,25.10
2019-04-06T10:11:29.654Z,24.30
2019-04-06T10:12:29.542Z,23.60
2019-04-06T10:13:29.753Z,24.40
2019-04-06T10:14:29.559Z,26.90
2019-04-06T10:15:29.517Z,23.10
2019-04-06T10:16:29.496Z,23.90
2019-04-06T10:17:29.493Z,23.00
2019-04-06T10:18:29.485Z,25.00
2019-04-06T10:19:29.487Z,29.10
2019-04-06T10:20:29.639Z,25.20
2019-04-06T10:21:29.475Z,24.40
2019-04-06T10:22:29.525Z,24.60
2019-04-06T10:23:29.448Z,23.80
2019-04-06T10:24:29.635Z,23.20
2019-04-06T10:25:29.408Z,23.90
2019-04-06T10:26:29.588Z,24.30
2019-04-06T10:27:29.528Z,24.00
2019-04-06T10:28:29.394Z,24.70
2019-04-06T10:29:29.412Z,23.00
2019-04-06T10:30:29.368Z,24.20
2019-04-06T10:31:29.473Z,25.40
2019-04-06T10:32:29.352Z,23.00
2019-04-06T10:33:29.336Z,24.70
2019-04-06T10:34:29.323Z,25.90
2019-04-06T10:35:29.346Z,24.90
2019-04-06T10:36:31.408Z,22.10
2019-04-06T10:37:29.318Z,24.10
2019-04-06T10:38:29.378Z,25.20
2019-04-06T10:39:29.285Z,27.10
2019-04-06T10:40:29.526Z,26.30
2019-04-06T10:41:29.264Z,22.50
2019-04-06T10:42:29.620Z,24.00
2019-04-06T10:43:29.392Z,23.40
2019-04-06T10:44:29.233Z,24.30
2019-04-06T10:45:29.275Z,25.70
2019-04-06T10:46:29.299Z,23.90
2019-04-06T10:47:29.197Z,25.60
2019-04-06T10:48:29.262Z,24.20
2019-04-06T10:49:29.184Z,23.10
2019-04-06T10:50:29.172Z,23.60
2019-04-06T10:51:29.410Z,23.70
2019-04-06T10:52:29.148Z,23.70
2019-04-06T10:53:29.442Z,23.40
2019-04-06T10:54:29.138Z,24.00
2019-04-06T10:55:29.272Z,23.00
2019-04-06T10:56:29.132Z,23.50
2019-04-06T10:57:29.098Z,23.20
2019-04-06T10:58:29.093Z,21.80
2019-04-06T10:59:29.078Z,22.90
2019-04-06T11:00:29.069Z,22.10
2019-04-06T11:01:29.084Z,24.00
2019-04-06T11:02:29.132Z,24.00
2019-04-06T11:03:29.049Z,21.70
2019-04-06T11:04:29.044Z,22.80
2019-04-06T11:05:29.019Z,21.90
2019-04-06T11:06:29.030Z,21.80
2019-04-06T11:07:29.096Z,21.10
2019-04-06T11:08:28.999Z,20.70
2019-04-06T11:09:29.292Z,22.20
2019-04-06T11:10:28.976Z,23.40
2019-04-06T11:11:28.999Z,21.70
2019-04-06T11:12:28.958Z,21.70
2019-04-06T11:13:28.953Z,23.90
2019-04-06T11:14:28.971Z,22.90
2019-04-06T11:15:28.931Z,23.00
2019-04-06T11:16:29.215Z,21.10
2019-04-06T11:17:29.127Z,22.70
2019-04-06T11:18:28.902Z,22.50
2019-04-06T11:19:28.964Z,23.20
2019-04-06T11:20:28.881Z,22.30
2019-04-06T11:21:28.876Z,23.60
2019-04-06T11:22:28.939Z,23.30
2019-04-06T11:23:28.852Z,23.20
2019-04-06T11:24:28.840Z,23.00
2019-04-06T11:25:28.858Z,22.10
2019-04-06T11:26:28.830Z,22.30
2019-04-06T11:27:28.868Z,21.30
2019-04-06T11:28:28.812Z,23.90
2019-04-06T11:29:28.788Z,22.60
2019-04-06T11:30:29.065Z,22.30
2019-04-06T11:31:28.841Z,24.70
2019-04-06T11:32:28.781Z,24.50
2019-04-06T11:33:28.992Z,22.70
2019-04-06T11:34:28.752Z,25.80
2019-04-06T11:35:28.742Z,24.00
2019-04-06T11:36:28.729Z,20.60
2019-04-06T11:37:28.904Z,22.80
2019-04-06T11:38:28.821Z,21.70
2019-04-06T11:39:28.738Z,22.80
2019-04-06T11:40:28.693Z,23.80
2019-04-06T11:41:28.786Z,23.50
2019-04-06T11:42:28.678Z,23.50
2019-04-06T11:43:28.683Z,23.60
2019-04-06T11:44:28.847Z,22.90
2019-04-06T11:45:28.642Z,24.10
2019-04-06T11:46:28.791Z,23.30
2019-04-06T11:47:28.805Z,23.90
2019-04-06T11:48:28.668Z,23.10
2019-04-06T11:49:28.601Z,24.50
2019-04-06T11:50:28.595Z,25.80
2019-04-06T11:51:28.799Z,24.70
2019-04-06T11:52:28.573Z,24.30
2019-04-06T11:53:28.576Z,24.90
2019-04-06T11:54:28.575Z,25.60
2019-04-06T11:55:28.547Z,24.80
2019-04-06T11:56:28.533Z,24.90
2019-04-06T11:57:28.572Z,26.00
2019-04-06T11:58:28.521Z,25.60
2019-04-06T11:59:28.528Z,24.10
2019-04-06T12:00:28.502Z,24.50
2019-04-06T12:01:28.844Z,24.40
2019-04-06T12:02:28.476Z,23.50
2019-04-06T12:03:28.469Z,27.70
2019-04-06T12:04:28.476Z,24.80
2019-04-06T12:05:28.453Z,23.70
2019-04-06T12:06:28.443Z,24.70
2019-04-06T12:07:28.439Z,24.30
2019-04-06T12:08:28.425Z,24.40
2019-04-06T12:09:28.442Z,23.60
2019-04-06T12:10:28.414Z,24.80
2019-04-06T12:11:28.401Z,25.50
2019-04-06T12:12:28.384Z,23.80
2019-04-06T12:13:28.368Z,24.30
2019-04-06T12:14:28.381Z,26.50
2019-04-06T12:15:29.780Z,23.90
2019-04-06T12:16:28.341Z,25.10
2019-04-06T12:17:28.747Z,25.30
2019-04-06T12:18:28.351Z,25.60
2019-04-06T12:19:28.453Z,24.40
2019-04-06T12:20:28.510Z,24.40
2019-04-06T12:21:28.307Z,24.00
2019-04-06T12:22:28.444Z,26.00
2019-04-06T12:23:28.440Z,25.50
2019-04-06T12:24:28.268Z,23.00
2019-04-06T12:25:28.265Z,24.60
2019-04-06T12:26:28.273Z,23.60
2019-04-06T12:27:28.552Z,22.60
2019-04-06T12:28:28.224Z,25.00
2019-04-06T12:29:28.593Z,23.90
2019-04-06T12:30:37.441Z,24.20
2019-04-06T12:31:29.223Z,24.00
2019-04-06T12:32:28.213Z,23.20
2019-04-06T12:33:28.488Z,24.90
2019-04-06T12:34:28.168Z,23.50
2019-04-06T12:35:28.337Z,23.30
2019-04-06T12:36:28.488Z,24.80
2019-04-06T12:37:28.315Z,23.80
2019-04-06T12:38:28.143Z,23.10
2019-04-06T12:39:28.127Z,22.90
2019-04-06T12:40:28.118Z,22.40
2019-04-06T12:41:28.176Z,22.80
2019-04-06T12:42:28.519Z,23.80
2019-04-06T12:43:30.809Z,26.60
2019-04-06T12:44:28.085Z,23.50
2019-04-06T12:45:28.345Z,21.50
2019-04-06T12:46:28.108Z,23.30
2019-04-06T12:47:28.583Z,23.40
2019-04-06T12:48:28.074Z,25.10
2019-04-06T12:49:28.047Z,22.60
2019-04-06T12:50:28.051Z,22.20
2019-04-06T12:51:28.025Z,24.20
2019-04-06T12:52:28.055Z,23.70